createdAt,value
2018-08-25T00:01:02.172Z,17.52
2018-08-25T00:02:12.142Z,17.52
2018-08-25T00:03:21.592Z,17.52
2018-08-25T00:04:31.293Z,17.57
2018-08-25T00:05:41.265Z,17.56
2018-08-25T00:06:50.968Z,17.52
2018-08-25T00:08:00.678Z,17.5
2018-08-25T00:09:10.700Z,17.47
2018-08-25T00:10:20.431Z,17.46
2018-08-25T00:11:30.409Z,17.53
2018-08-25T00:12:40.386Z,17.52
2018-08-25T00:13:50.358Z,17.52
2018-08-25T00:15:00.327Z,17.5
2018-08-25T00:16:10.299Z,17.59
2018-08-25T00:17:20.005Z,17.5
2018-08-25T00:18:29.724Z,17.47
2018-08-25T00:19:39.695Z,17.57
2018-08-25T00:20:49.658Z,17.53
2018-08-25T00:21:59.374Z,17.52
2018-08-25T00:23:09.338Z,17.54
2018-08-25T00:24:19.310Z,17.49
2018-08-25T00:25:29.010Z,17.47
2018-08-25T00:26:38.713Z,17.52
2018-08-25T00:27:48.679Z,17.46
2018-08-25T00:28:58.644Z,17.5
2018-08-25T00:30:08.097Z,17.52
2018-08-25T00:31:18.083Z,17.49
2018-08-25T00:32:27.786Z,17.47
2018-08-25T00:33:37.751Z,17.52
2018-08-25T00:34:47.709Z,17.49
2018-08-25T00:35:57.661Z,17.46
2018-08-25T00:37:07.366Z,17.49
2018-08-25T00:38:17.327Z,17.38
2018-08-25T00:39:26.778Z,17.37
2018-08-25T00:40:36.761Z,17.37
2018-08-25T00:41:46.468Z,17.32
2018-08-25T00:42:56.191Z,17.31
2018-08-25T00:44:06.158Z,17.31
2018-08-25T00:45:16.140Z,17.22
2018-08-25T00:46:25.841Z,17.17
2018-08-25T00:47:35.880Z,17.12
2018-08-25T00:48:45.972Z,17.19
2018-08-25T00:49:55.677Z,17.16
2018-08-25T00:51:05.401Z,17.12
2018-08-25T00:52:15.101Z,17.1
2018-08-25T00:53:24.804Z,17.14
2018-08-25T00:54:34.776Z,17.1
2018-08-25T00:55:44.503Z,17.07
2018-08-25T00:56:54.473Z,17.05
2018-08-25T00:58:04.450Z,16.94
2018-08-25T00:59:14.512Z,16.91
2018-08-25T01:00:24.538Z,16.82
2018-08-25T01:01:34.495Z,16.8
2018-08-25T01:02:44.219Z,16.8
2018-08-25T01:03:53.684Z,16.73
2018-08-25T01:05:03.690Z,16.69
2018-08-25T01:06:13.396Z,16.61
2018-08-25T01:07:23.364Z,16.55
2018-08-25T01:08:33.325Z,16.51
2018-08-25T01:09:43.297Z,16.47
2018-08-25T01:10:53.258Z,16.44
2018-08-25T01:12:03.017Z,16.39
2018-08-25T01:13:13.004Z,16.39
2018-08-25T01:14:22.959Z,16.36
2018-08-25T01:15:33.014Z,16.25
2018-08-25T01:16:42.786Z,16.28
2018-08-25T01:17:52.755Z,16.25
2018-08-25T01:19:02.735Z,16.29
2018-08-25T01:20:12.696Z,16.17
2018-08-25T01:21:22.145Z,16.08
2018-08-25T01:22:32.110Z,16.12
2018-08-25T01:23:42.077Z,16.09
2018-08-25T01:24:51.775Z,16.06
2018-08-25T01:26:01.732Z,16.02
2018-08-25T01:27:11.433Z,16.05
2018-08-25T01:28:21.378Z,16.02
2018-08-25T01:29:31.083Z,15.94
2018-08-25T01:30:41.057Z,15.99
2018-08-25T01:31:51.018Z,16.08
2018-08-25T01:33:00.995Z,16.03
2018-08-25T01:34:10.964Z,15.94
2018-08-25T01:35:20.914Z,16.02
2018-08-25T01:36:30.878Z,16
2018-08-25T01:37:40.830Z,15.92
2018-08-25T01:38:50.553Z,15.99
2018-08-25T01:40:00.510Z,15.91
2018-08-25T01:41:10.481Z,15.84
2018-08-25T01:42:20.196Z,15.84
2018-08-25T01:43:29.908Z,15.88
2018-08-25T01:44:39.619Z,15.84
2018-08-25T01:45:49.065Z,15.87
2018-08-25T01:46:59.027Z,15.88
2018-08-25T01:48:08.474Z,15.84
2018-08-25T01:49:18.185Z,15.85
2018-08-25T01:50:28.146Z,15.78
2018-08-25T01:51:38.125Z,15.78
2018-08-25T01:52:48.086Z,15.76
2018-08-25T01:53:58.052Z,15.76
2018-08-25T01:55:08.007Z,15.8
2018-08-25T01:56:17.960Z,15.78
2018-08-25T01:57:27.928Z,15.76
2018-08-25T01:58:37.629Z,15.72
2018-08-25T01:59:47.328Z,15.75
2018-08-25T02:00:57.034Z,15.7
2018-08-25T02:02:06.996Z,15.66
2018-08-25T02:03:16.957Z,15.63
2018-08-25T02:04:26.665Z,15.6
2018-08-25T02:05:36.361Z,15.66
2018-08-25T02:06:46.327Z,15.66
2018-08-25T02:07:56.042Z,15.69
2018-08-25T02:09:06.001Z,15.69
2018-08-25T02:10:15.722Z,15.7
2018-08-25T02:11:25.700Z,15.69
2018-08-25T02:12:35.404Z,15.66
2018-08-25T02:13:45.375Z,15.72
2018-08-25T02:14:55.354Z,15.65
2018-08-25T02:16:05.316Z,15.66
2018-08-25T02:17:15.275Z,15.66
2018-08-25T02:18:25.230Z,15.69
2018-08-25T02:19:34.988Z,15.7
2018-08-25T02:20:44.433Z,15.66
2018-08-25T02:21:54.393Z,15.69
2018-08-25T02:23:04.362Z,15.73
2018-08-25T02:24:14.377Z,15.78
2018-08-25T02:25:24.333Z,15.7
2018-08-25T02:26:34.039Z,15.7
2018-08-25T02:27:43.747Z,15.8
2018-08-25T02:28:53.712Z,15.72
2018-08-25T02:30:03.702Z,15.76
2018-08-25T02:31:13.671Z,15.78
2018-08-25T02:32:23.635Z,15.84
2018-08-25T02:33:33.607Z,15.75
2018-08-25T02:34:43.339Z,15.81
2018-08-25T02:35:53.290Z,15.81
2018-08-25T02:37:02.994Z,15.76
2018-08-25T02:38:12.701Z,15.78
2018-08-25T02:39:22.142Z,15.76
2018-08-25T02:40:32.117Z,15.83
2018-08-25T02:41:42.092Z,15.76
2018-08-25T02:42:51.809Z,15.75
2018-08-25T02:44:01.766Z,15.73
2018-08-25T02:45:11.734Z,15.75
2018-08-25T02:46:21.436Z,15.88
2018-08-25T02:47:31.145Z,15.84
2018-08-25T02:48:41.105Z,15.85
2018-08-25T02:49:51.073Z,15.87
2018-08-25T02:51:00.772Z,15.91
2018-08-25T02:52:10.477Z,15.96
2018-08-25T02:53:20.441Z,16.05
2018-08-25T02:54:30.413Z,16.05
2018-08-25T02:55:40.371Z,16
2018-08-25T02:56:50.327Z,16.09
2018-08-25T02:58:00.038Z,16.12
2018-08-25T02:59:09.991Z,16.12
2018-08-25T03:00:19.960Z,16.05
2018-08-25T03:01:29.927Z,16.05
2018-08-25T03:02:39.624Z,16.06
2018-08-25T03:03:49.604Z,16.03
2018-08-25T03:04:59.563Z,15.99
2018-08-25T03:06:09.537Z,16.02
2018-08-25T03:07:19.515Z,16.08
2018-08-25T03:08:28.963Z,16.03
2018-08-25T03:09:38.931Z,16.09
2018-08-25T03:10:48.899Z,16.06
2018-08-25T03:11:58.613Z,16.09
2018-08-25T03:13:08.572Z,16.12
2018-08-25T03:14:18.283Z,16.09
2018-08-25T03:15:28.236Z,16.21
2018-08-25T03:16:38.204Z,16.18
2018-08-25T03:17:47.907Z,16.22
2018-08-25T03:18:57.883Z,16.28
2018-08-25T03:20:07.589Z,16.21
2018-08-25T03:21:17.544Z,16.22
2018-08-25T03:22:27.510Z,16.29
2018-08-25T03:23:37.221Z,16.31
2018-08-25T03:24:47.179Z,16.28
2018-08-25T03:25:57.158Z,16.28
2018-08-25T03:27:06.861Z,16.36
2018-08-25T03:28:16.579Z,16.29
2018-08-25T03:29:26.550Z,16.26
2018-08-25T03:30:36.545Z,16.28
2018-08-25T03:31:46.528Z,16.16
2018-08-25T03:32:56.513Z,16.21
2018-08-25T03:34:06.220Z,16.26
2018-08-25T03:35:15.403Z,16.28
2018-08-25T03:36:24.851Z,16.25
2018-08-25T03:37:34.815Z,16.21
2018-08-25T03:38:44.785Z,16.06
2018-08-25T03:39:54.514Z,16.08
2018-08-25T03:41:04.492Z,16.12
2018-08-25T03:42:14.454Z,16.13
2018-08-25T03:43:24.427Z,16.09
2018-08-25T03:44:34.389Z,16.02
2018-08-25T03:45:44.345Z,16.12
2018-08-25T03:46:54.312Z,15.98
2018-08-25T03:48:04.288Z,15.9
2018-08-25T03:49:14.249Z,15.99
2018-08-25T03:50:23.699Z,15.85
2018-08-25T03:51:33.658Z,15.9
2018-08-25T03:52:43.618Z,15.8
2018-08-25T03:53:53.570Z,15.73
2018-08-25T03:55:03.281Z,15.75
2018-08-25T03:56:12.981Z,15.7
2018-08-25T03:57:22.691Z,15.73
2018-08-25T03:58:32.147Z,15.76
2018-08-25T03:59:42.110Z,15.62
2018-08-25T04:00:51.821Z,15.7
2018-08-25T04:02:01.792Z,15.6
2018-08-25T04:03:11.770Z,15.54
2018-08-25T04:04:21.741Z,15.47
2018-08-25T04:05:31.193Z,15.44
2018-08-25T04:06:41.148Z,15.43
2018-08-25T04:07:50.849Z,15.43
2018-08-25T04:09:00.553Z,15.44
2018-08-25T04:10:09.998Z,15.44
2018-08-25T04:11:19.965Z,15.41
2018-08-25T04:12:29.929Z,15.39
2018-08-25T04:13:39.632Z,15.32
2018-08-25T04:14:49.621Z,15.43
2018-08-25T04:15:59.593Z,15.43
2018-08-25T04:17:09.551Z,15.41
2018-08-25T04:18:19.259Z,15.33
2018-08-25T04:19:29.221Z,15.41
2018-08-25T04:20:39.188Z,15.47
2018-08-25T04:21:48.891Z,15.36
2018-08-25T04:22:58.860Z,15.41
2018-08-25T04:24:08.574Z,15.45
2018-08-25T04:25:18.527Z,15.37
2018-08-25T04:26:28.231Z,15.44
2018-08-25T04:27:37.937Z,15.36
2018-08-25T04:28:47.903Z,15.36
2018-08-25T04:29:57.350Z,15.35
2018-08-25T04:31:07.310Z,15.36
2018-08-25T04:32:17.279Z,15.37
2018-08-25T04:33:27.379Z,15.39
2018-08-25T04:34:37.510Z,15.41
2018-08-25T04:35:47.209Z,15.41
2018-08-25T04:36:57.184Z,15.36
2018-08-25T04:38:06.939Z,15.37
2018-08-25T04:39:16.898Z,15.36
2018-08-25T04:40:26.868Z,15.39
2018-08-25T04:41:36.832Z,15.39
2018-08-25T04:42:46.540Z,15.41
2018-08-25T04:43:56.240Z,15.35
2018-08-25T04:45:06.249Z,15.36
2018-08-25T04:46:16.227Z,15.44
2018-08-25T04:47:26.257Z,15.47
2018-08-25T04:48:35.963Z,15.5
2018-08-25T04:49:45.720Z,15.44
2018-08-25T04:50:55.672Z,15.5
2018-08-25T04:52:05.369Z,15.47
2018-08-25T04:53:15.076Z,15.55
2018-08-25T04:54:25.072Z,15.6
2018-08-25T04:55:35.041Z,15.52
2018-08-25T04:56:45.002Z,15.57
2018-08-25T04:57:54.708Z,15.55
2018-08-25T04:59:04.675Z,15.6
2018-08-25T05:00:14.641Z,15.57
2018-08-25T05:01:24.599Z,15.54
2018-08-25T05:02:34.302Z,15.48
2018-08-25T05:03:43.485Z,15.48
2018-08-25T05:04:53.456Z,15.45
2018-08-25T05:06:03.155Z,15.43
2018-08-25T05:07:12.866Z,15.25
2018-08-25T05:08:22.844Z,15.27
2018-08-25T05:09:32.561Z,15.3
2018-08-25T05:10:42.530Z,15.32
2018-08-25T05:11:52.495Z,15.17
2018-08-25T05:13:02.463Z,15.25
2018-08-25T05:14:12.165Z,15.12
2018-08-25T05:15:22.132Z,15.3
2018-08-25T05:16:31.582Z,15.19
2018-08-25T05:17:41.549Z,15.19
2018-08-25T05:18:51.253Z,15.17
2018-08-25T05:20:00.965Z,15.15
2018-08-25T05:21:10.935Z,15.19
2018-08-25T05:22:20.923Z,15.3
2018-08-25T05:23:30.909Z,15.35
2018-08-25T05:24:40.650Z,15.41
2018-08-25T05:25:50.622Z,15.35
2018-08-25T05:27:00.079Z,15.44
2018-08-25T05:28:10.037Z,15.33
2018-08-25T05:29:20.006Z,15.35
2018-08-25T05:30:29.985Z,15.29
2018-08-25T05:31:39.697Z,15.3
2018-08-25T05:32:49.408Z,15.29
2018-08-25T05:33:59.377Z,15.18
2018-08-25T05:35:09.358Z,15.3
2018-08-25T05:36:19.324Z,15.19
2018-08-25T05:37:29.328Z,15.37
2018-08-25T05:38:39.297Z,15.35
2018-08-25T05:39:49.317Z,15.25
2018-08-25T05:40:59.285Z,15.44
2018-08-25T05:42:08.737Z,15.41
2018-08-25T05:43:18.705Z,15.36
2018-08-25T05:44:28.665Z,15.43
2018-08-25T05:45:38.389Z,15.32
2018-08-25T05:46:48.090Z,15.39
2018-08-25T05:47:57.801Z,15.5
2018-08-25T05:49:07.504Z,15.51
2018-08-25T05:50:17.480Z,15.47
2018-08-25T05:51:27.449Z,15.45
2018-08-25T05:52:37.168Z,15.45
2018-08-25T05:53:46.620Z,15.5
2018-08-25T05:54:56.585Z,15.47
2018-08-25T05:56:06.558Z,15.48
2018-08-25T05:57:16.601Z,15.5
2018-08-25T05:58:26.566Z,15.44
2018-08-25T05:59:36.526Z,15.59
2018-08-25T06:00:46.499Z,15.51
2018-08-25T06:01:56.211Z,15.48
2018-08-25T06:03:06.184Z,15.51
2018-08-25T06:04:16.155Z,15.54
2018-08-25T06:05:25.857Z,15.57
2018-08-25T06:06:35.977Z,15.55
2018-08-25T06:07:46.246Z,15.63
2018-08-25T06:08:55.949Z,15.6
2018-08-25T06:10:05.924Z,15.65
2018-08-25T06:11:15.899Z,15.57
2018-08-25T06:12:25.863Z,15.59
2018-08-25T06:13:36.193Z,15.57
2018-08-25T06:14:46.105Z,15.65
2018-08-25T06:15:55.859Z,15.67
2018-08-25T06:17:05.836Z,15.73
2018-08-25T06:18:15.552Z,15.76
2018-08-25T06:19:25.715Z,15.83
2018-08-25T06:20:35.680Z,15.94
2018-08-25T06:21:45.633Z,15.92
2018-08-25T06:22:55.078Z,15.9
2018-08-25T06:24:05.049Z,15.83
2018-08-25T06:25:15.012Z,15.76
2018-08-25T06:26:24.997Z,15.75
2018-08-25T06:27:34.714Z,15.67
2018-08-25T06:28:44.450Z,15.72
2018-08-25T06:29:54.725Z,15.7
2018-08-25T06:31:04.796Z,15.7
2018-08-25T06:32:14.499Z,15.67
2018-08-25T06:33:24.454Z,15.7
2018-08-25T06:34:34.405Z,15.72
2018-08-25T06:35:44.366Z,15.81
2018-08-25T06:36:54.072Z,15.78
2018-08-25T06:38:04.214Z,15.84
2018-08-25T06:39:14.190Z,15.84
2018-08-25T06:40:23.640Z,15.84
2018-08-25T06:41:33.618Z,15.96
2018-08-25T06:42:43.868Z,16
2018-08-25T06:43:53.260Z,16.12
2018-08-25T06:45:03.221Z,16.1
2018-08-25T06:46:12.947Z,16.1
2018-08-25T06:47:22.661Z,16.22
2018-08-25T06:48:32.628Z,16.28
2018-08-25T06:49:42.595Z,16.24
2018-08-25T06:50:52.301Z,16.18
2018-08-25T06:52:02.007Z,16.25
2018-08-25T06:53:11.811Z,16.21
2018-08-25T06:54:21.868Z,16.13
2018-08-25T06:55:31.584Z,16.13
2018-08-25T06:56:41.550Z,16.1
2018-08-25T06:57:51.287Z,16
2018-08-25T06:59:01.263Z,16.06
2018-08-25T07:00:10.985Z,16.12
2018-08-25T07:01:20.947Z,16.06
2018-08-25T07:02:30.143Z,16.22
2018-08-25T07:03:40.126Z,16.17
2018-08-25T07:04:50.093Z,16.24
2018-08-25T07:06:00.211Z,16.25
2018-08-25T07:07:10.107Z,16.25
2018-08-25T07:08:19.579Z,16.26
2018-08-25T07:09:29.553Z,16.36
2018-08-25T07:10:39.551Z,16.31
2018-08-25T07:11:49.257Z,16.31
2018-08-25T07:12:59.583Z,16.21
2018-08-25T07:14:09.326Z,16.22
2018-08-25T07:15:19.288Z,16.26
2018-08-25T07:16:29.261Z,16.31
2018-08-25T07:17:38.956Z,16.32
2018-08-25T07:18:49.017Z,16.47
2018-08-25T07:19:59.117Z,16.44
2018-08-25T07:21:08.839Z,16.49
2018-08-25T07:22:18.822Z,16.51
2018-08-25T07:23:28.530Z,16.5
2018-08-25T07:24:38.252Z,16.47
2018-08-25T07:25:48.168Z,16.58
2018-08-25T07:26:57.713Z,16.76
2018-08-25T07:28:07.696Z,16.91
2018-08-25T07:29:17.408Z,16.97
2018-08-25T07:30:27.392Z,16.98
2018-08-25T07:31:37.371Z,16.95
2018-08-25T07:32:47.333Z,16.95
2018-08-25T07:33:57.297Z,16.82
2018-08-25T07:35:07.264Z,16.98
2018-08-25T07:36:17.233Z,17.01
2018-08-25T07:37:26.936Z,17.07
2018-08-25T07:38:36.638Z,17.07
2018-08-25T07:39:46.603Z,16.99
2018-08-25T07:40:56.581Z,17.07
2018-08-25T07:42:06.551Z,17.07
2018-08-25T07:43:16.262Z,16.99
2018-08-25T07:44:25.989Z,16.95
2018-08-25T07:45:35.699Z,16.92
2018-08-25T07:46:45.684Z,16.95
2018-08-25T07:47:55.662Z,16.89
2018-08-25T07:49:05.637Z,16.94
2018-08-25T07:50:15.613Z,16.97
2018-08-25T07:51:25.329Z,17.01
2018-08-25T07:52:34.807Z,16.99
2018-08-25T07:53:44.860Z,16.99
2018-08-25T07:54:55.095Z,17.04
2018-08-25T07:56:05.088Z,17.09
2018-08-25T07:57:15.068Z,17.14
2018-08-25T07:58:24.864Z,17.22
2018-08-25T07:59:34.989Z,17.37
2018-08-25T08:00:44.713Z,17.37
2018-08-25T08:01:54.670Z,17.41
2018-08-25T08:03:04.639Z,17.27
2018-08-25T08:04:14.603Z,17.19
2018-08-25T08:05:24.684Z,17.24
2018-08-25T08:06:34.533Z,17.32
2018-08-25T08:07:44.509Z,17.46
2018-08-25T08:08:53.962Z,17.57
2018-08-25T08:10:03.666Z,17.57
2018-08-25T08:11:13.638Z,17.75
2018-08-25T08:12:23.588Z,17.78
2018-08-25T08:13:33.221Z,17.78
2018-08-25T08:14:42.954Z,17.79
2018-08-25T08:15:52.919Z,17.82
2018-08-25T08:17:02.887Z,17.79
2018-08-25T08:18:12.842Z,17.94
2018-08-25T08:19:22.553Z,17.95
2018-08-25T08:20:32.267Z,17.97
2018-08-25T08:21:42.246Z,18.11
2018-08-25T08:22:51.709Z,18.21
2018-08-25T08:24:01.428Z,18.33
2018-08-25T08:25:11.399Z,18.46
2018-08-25T08:26:21.376Z,18.6
2018-08-25T08:27:31.091Z,18.58
2018-08-25T08:28:40.811Z,18.67
2018-08-25T08:29:50.773Z,18.71
2018-08-25T08:31:00.489Z,18.91
2018-08-25T08:32:10.199Z,19.05
2018-08-25T08:33:19.909Z,19.23
2018-08-25T08:34:29.625Z,19.15
2018-08-25T08:35:39.593Z,19.24
2018-08-25T08:36:49.321Z,19.22
2018-08-25T08:37:59.041Z,19.2
2018-08-25T08:39:09.078Z,19.08
2018-08-25T08:40:18.776Z,19.19
2018-08-25T08:41:28.501Z,19.24
2018-08-25T08:42:38.474Z,19.41
2018-08-25T08:43:48.176Z,19.59
2018-08-25T08:44:58.160Z,19.55
2018-08-25T08:46:08.162Z,19.72
2018-08-25T08:47:18.170Z,19.84
2018-08-25T08:48:28.394Z,19.96
2018-08-25T08:49:51.829Z,19.96
2018-08-25T08:51:01.956Z,20.22
2018-08-25T08:52:11.929Z,20.34
2018-08-25T08:53:21.920Z,20.3
2018-08-25T08:54:31.626Z,20.29
2018-08-25T08:55:41.590Z,20.58
2018-08-25T08:56:51.568Z,20.88
2018-08-25T08:58:01.295Z,21.13
2018-08-25T08:59:11.293Z,20.86
2018-08-25T09:00:21.266Z,20.86
2018-08-25T09:01:30.983Z,20.67
2018-08-25T09:02:40.983Z,20.74
2018-08-25T09:03:50.697Z,20.86
2018-08-25T09:05:00.676Z,20.8
2018-08-25T09:06:10.661Z,20.83
2018-08-25T09:07:20.625Z,20.83
2018-08-25T09:08:30.595Z,20.8
2018-08-25T09:09:40.051Z,20.93
2018-08-25T09:10:50.030Z,20.92
2018-08-25T09:11:59.988Z,21.22
2018-08-25T09:13:09.762Z,21.3
2018-08-25T09:14:19.465Z,21.33
2018-08-25T09:15:29.442Z,21.48
2018-08-25T09:16:39.413Z,21.68
2018-08-25T09:17:49.133Z,21.97
2018-08-25T09:18:59.112Z,21.92
2018-08-25T09:20:09.091Z,21.96
2018-08-25T09:21:19.057Z,21.8
2018-08-25T09:22:29.024Z,21.88
2018-08-25T09:23:38.998Z,22.16
2018-08-25T09:24:48.959Z,22.26
2018-08-25T09:25:58.687Z,22.25
2018-08-25T09:27:08.422Z,22.19
2018-08-25T09:28:18.412Z,22.16
2018-08-25T09:29:28.394Z,22.16
2018-08-25T09:30:38.108Z,22.14
2018-08-25T09:31:47.845Z,22.1
2018-08-25T09:32:57.560Z,22.34
2018-08-25T09:34:07.527Z,22.52
2018-08-25T09:35:17.602Z,22.7
2018-08-25T09:36:28.146Z,22.65
2018-08-25T09:37:38.690Z,22.81
2018-08-25T09:38:48.659Z,22.91
2018-08-25T09:39:58.382Z,22.86
2018-08-25T09:41:08.105Z,22.86
2018-08-25T09:42:18.093Z,22.67
2018-08-25T09:43:28.071Z,22.56
2018-08-25T09:44:37.788Z,22.52
2018-08-25T09:45:47.777Z,22.68
2018-08-25T09:46:57.670Z,22.96
2018-08-25T09:48:07.817Z,23.21
2018-08-25T09:49:17.534Z,23.13
2018-08-25T09:50:27.500Z,23.02
2018-08-25T09:51:37.222Z,22.77
2018-08-25T09:52:47.198Z,22.4
2018-08-25T09:53:56.918Z,22.03
2018-08-25T09:55:06.905Z,21.81
2018-08-25T09:56:16.616Z,21.75
2018-08-25T09:57:26.348Z,21.74
2018-08-25T09:58:36.064Z,21.62
2018-08-25T09:59:45.796Z,21.44
2018-08-25T10:00:55.771Z,21.32
2018-08-25T10:02:05.764Z,21.33
2018-08-25T10:03:15.763Z,21.28
2018-08-25T10:04:25.230Z,21.26
2018-08-25T10:05:34.697Z,21.17
2018-08-25T10:06:44.662Z,21.2
2018-08-25T10:07:54.631Z,21.14
2018-08-25T10:09:04.616Z,21.23
2018-08-25T10:10:14.590Z,21.3
2018-08-25T10:11:24.313Z,21.19
2018-08-25T10:12:33.766Z,21.28
2018-08-25T10:13:43.742Z,21.32
2018-08-25T10:14:53.741Z,21.3
2018-08-25T10:16:03.725Z,21.37
2018-08-25T10:17:13.191Z,21.28
2018-08-25T10:18:22.920Z,21.26
2018-08-25T10:19:32.891Z,21.33
2018-08-25T10:20:42.606Z,21.22
2018-08-25T10:21:52.594Z,21.28
2018-08-25T10:23:02.574Z,21.17
2018-08-25T10:24:12.714Z,21.11
2018-08-25T10:25:22.423Z,21.08
2018-08-25T10:26:32.152Z,21.25
2018-08-25T10:27:41.865Z,21.32
2018-08-25T10:28:51.870Z,21.33
2018-08-25T10:30:01.940Z,21.26
2018-08-25T10:31:11.923Z,21.32
2018-08-25T10:32:21.922Z,21.43
2018-08-25T10:33:31.370Z,21.62
2018-08-25T10:34:41.346Z,21.65
2018-08-25T10:35:51.680Z,21.85
2018-08-25T10:37:01.317Z,21.85
2018-08-25T10:38:11.032Z,21.83
2018-08-25T10:39:21.013Z,21.63
2018-08-25T10:40:31.006Z,21.56
2018-08-25T10:41:41.176Z,21.65
2018-08-25T10:42:51.619Z,21.72
2018-08-25T10:44:00.813Z,21.63
2018-08-25T10:45:10.563Z,21.53
2018-08-25T10:46:20.546Z,21.48
2018-08-25T10:47:30.261Z,21.43
2018-08-25T10:48:39.712Z,21.4
2018-08-25T10:49:49.444Z,21.33
2018-08-25T10:50:59.158Z,21.35
2018-08-25T10:52:08.873Z,21.43
2018-08-25T10:53:18.862Z,21.6
2018-08-25T10:54:28.572Z,21.58
2018-08-25T10:55:38.549Z,21.74
2018-08-25T10:56:48.267Z,21.74
2018-08-25T10:57:57.977Z,21.84
2018-08-25T10:59:07.689Z,21.68
2018-08-25T11:00:18.002Z,21.58
2018-08-25T11:01:28.063Z,21.59
2018-08-25T11:02:38.071Z,21.43
2018-08-25T11:03:48.054Z,21.35
2018-08-25T11:04:58.020Z,21.38
2018-08-25T11:06:08.004Z,21.37
2018-08-25T11:07:17.986Z,21.3
2018-08-25T11:08:27.747Z,21.4
2018-08-25T11:09:37.719Z,21.3
2018-08-25T11:10:47.707Z,21.43
2018-08-25T11:11:57.490Z,21.65
2018-08-25T11:13:07.215Z,21.68
2018-08-25T11:14:16.686Z,21.75
2018-08-25T11:15:26.673Z,21.58
2018-08-25T11:16:37.011Z,21.56
2018-08-25T11:17:46.988Z,21.51
2018-08-25T11:18:56.963Z,21.45
2018-08-25T11:20:06.681Z,21.3
2018-08-25T11:21:16.668Z,21.28
2018-08-25T11:22:26.401Z,21.13
2018-08-25T11:23:36.243Z,21.14
2018-08-25T11:24:46.079Z,21.1
2018-08-25T11:25:55.533Z,21.14
2018-08-25T11:27:05.253Z,21.15
2018-08-25T11:28:15.261Z,21.26
2018-08-25T11:29:25.315Z,21.28
2018-08-25T11:30:35.022Z,21.37
2018-08-25T11:31:45.015Z,21.29
2018-08-25T11:32:54.985Z,21.33
2018-08-25T11:34:04.706Z,21.32
2018-08-25T11:35:14.690Z,21.41
2018-08-25T11:36:24.660Z,21.65
2018-08-25T11:37:34.627Z,22.03
2018-08-25T11:38:44.901Z,22.33
2018-08-25T11:39:54.879Z,22.43
2018-08-25T11:41:04.883Z,22.65
2018-08-25T11:42:14.854Z,22.86
2018-08-25T11:43:24.846Z,22.92
2018-08-25T11:44:34.578Z,22.78
2018-08-25T11:45:44.553Z,22.76
2018-08-25T11:46:54.272Z,22.49
2018-08-25T11:48:04.246Z,22.4
2018-08-25T11:49:14.219Z,22.31
2018-08-25T11:50:23.942Z,22.34
2018-08-25T11:51:33.409Z,22.46
2018-08-25T11:52:43.139Z,22.55
2018-08-25T11:53:52.926Z,22.7
2018-08-25T11:55:03.028Z,22.62
2018-08-25T11:56:13.019Z,22.77
2018-08-25T11:57:22.749Z,22.74
2018-08-25T11:58:32.213Z,22.76
2018-08-25T11:59:42.198Z,22.77
2018-08-25T12:00:52.184Z,22.81
2018-08-25T12:02:02.164Z,22.98
2018-08-25T12:03:11.930Z,22.92
2018-08-25T12:04:21.933Z,22.88
2018-08-25T12:05:31.915Z,22.81
2018-08-25T12:06:41.897Z,23.06
2018-08-25T12:07:51.626Z,23.06
2018-08-25T12:09:01.343Z,23.29
2018-08-25T12:10:11.063Z,23.23
2018-08-25T12:11:21.048Z,23.14
2018-08-25T12:12:30.761Z,23.14
2018-08-25T12:13:40.276Z,22.89
2018-08-25T12:14:50.240Z,22.74
2018-08-25T12:16:00.222Z,22.78
2018-08-25T12:17:10.196Z,22.76
2018-08-25T12:18:20.168Z,22.7
2018-08-25T12:19:30.162Z,22.51
2018-08-25T12:20:40.148Z,22.37
2018-08-25T12:21:49.337Z,22.25
2018-08-25T12:22:59.321Z,22.22
2018-08-25T12:24:09.559Z,22.15
2018-08-25T12:25:19.814Z,22.23
2018-08-25T12:26:29.525Z,22.14
2018-08-25T12:27:39.501Z,22.14
2018-08-25T12:28:49.476Z,21.97
2018-08-25T12:29:59.449Z,21.97
2018-08-25T12:31:09.223Z,21.92
2018-08-25T12:32:19.213Z,21.84
2018-08-25T12:33:29.326Z,21.84
2018-08-25T12:34:39.657Z,21.72
2018-08-25T12:35:49.636Z,21.58
2018-08-25T12:36:59.341Z,21.54
2018-08-25T12:38:09.063Z,21.43
2018-08-25T12:39:19.278Z,21.41
2018-08-25T12:40:28.796Z,21.38
2018-08-25T12:41:38.758Z,21.28
2018-08-25T12:42:48.735Z,21.32
2018-08-25T12:43:58.442Z,21.32
2018-08-25T12:45:08.395Z,21.13
2018-08-25T12:46:18.410Z,20.95
2018-08-25T12:47:28.135Z,20.77
2018-08-25T12:48:38.110Z,20.7
2018-08-25T12:49:48.161Z,20.58
2018-08-25T12:50:57.878Z,20.58
2018-08-25T12:52:07.601Z,20.49
2018-08-25T12:53:17.571Z,20.52
2018-08-25T12:54:27.050Z,20.4
2018-08-25T12:55:37.024Z,20.42
2018-08-25T12:56:46.734Z,20.29
2018-08-25T12:57:56.711Z,20.36
2018-08-25T12:59:06.843Z,20.19
2018-08-25T13:00:16.397Z,20.07
2018-08-25T13:01:26.129Z,19.93
2018-08-25T13:02:36.124Z,19.78
2018-08-25T13:03:46.091Z,19.67
2018-08-25T13:04:55.802Z,19.6
2018-08-25T13:06:05.518Z,19.55
2018-08-25T13:07:15.307Z,19.56
2018-08-25T13:08:25.372Z,19.39
2018-08-25T13:09:35.355Z,19.19
2018-08-25T13:10:45.343Z,18.76
2018-08-25T13:11:55.079Z,18.46
2018-08-25T13:13:05.407Z,18.13
2018-08-25T13:14:15.274Z,17.93
2018-08-25T13:15:25.264Z,17.76
2018-08-25T13:16:34.968Z,17.65
2018-08-25T13:17:44.430Z,17.49
2018-08-25T13:18:54.409Z,17.42
2018-08-25T13:20:04.846Z,17.39
2018-08-25T13:21:14.822Z,17.2
2018-08-25T13:22:24.797Z,17.19
2018-08-25T13:23:34.751Z,17.16
2018-08-25T13:24:44.805Z,17.14
2018-08-25T13:25:54.849Z,17.01
2018-08-25T13:27:04.845Z,16.95
2018-08-25T13:28:14.884Z,16.92
2018-08-25T13:29:24.861Z,16.83
2018-08-25T13:30:34.838Z,16.74
2018-08-25T13:31:44.814Z,16.64
2018-08-25T13:32:54.797Z,16.59
2018-08-25T13:34:04.768Z,16.41
2018-08-25T13:35:14.741Z,16.44
2018-08-25T13:36:24.447Z,16.32
2018-08-25T13:37:34.428Z,16.26
2018-08-25T13:38:43.950Z,16.24
2018-08-25T13:39:54.082Z,16.17
2018-08-25T13:41:03.964Z,16.16
2018-08-25T13:42:13.938Z,16.06
2018-08-25T13:43:23.664Z,16
2018-08-25T13:44:33.652Z,15.99
2018-08-25T13:45:43.642Z,15.87
2018-08-25T13:46:53.632Z,15.87
2018-08-25T13:48:03.609Z,15.83
2018-08-25T13:49:13.335Z,15.85
2018-08-25T13:50:23.053Z,15.75
2018-08-25T13:51:32.507Z,15.8
2018-08-25T13:52:42.806Z,15.76
2018-08-25T13:53:52.896Z,15.78
2018-08-25T13:55:02.862Z,15.7
2018-08-25T13:56:12.577Z,15.73
2018-08-25T13:57:22.557Z,15.69
2018-08-25T13:58:32.550Z,15.73
2018-08-25T13:59:42.276Z,15.75
2018-08-25T14:00:52.259Z,15.7
2018-08-25T14:02:02.235Z,15.7
2018-08-25T14:03:12.228Z,15.72
2018-08-25T14:04:21.939Z,15.69
2018-08-25T14:05:31.667Z,15.67
2018-08-25T14:06:41.392Z,15.69
2018-08-25T14:07:51.362Z,15.67
2018-08-25T14:09:01.339Z,15.63
2018-08-25T14:10:11.055Z,15.67
2018-08-25T14:11:21.034Z,15.67
2018-08-25T14:12:31.001Z,15.65
2018-08-25T14:13:40.963Z,15.63
2018-08-25T14:14:50.939Z,15.65
2018-08-25T14:16:01.212Z,15.72
2018-08-25T14:17:11.173Z,15.75
2018-08-25T14:18:21.173Z,15.75
2018-08-25T14:19:31.143Z,15.85
2018-08-25T14:20:40.883Z,15.9
2018-08-25T14:21:50.589Z,15.84
2018-08-25T14:23:00.560Z,15.98
2018-08-25T14:24:10.548Z,15.94
2018-08-25T14:25:20.276Z,16
2018-08-25T14:26:30.251Z,16.06
2018-08-25T14:27:40.217Z,16.17
2018-08-25T14:28:50.338Z,16.12
2018-08-25T14:30:00.617Z,16.17
2018-08-25T14:31:10.598Z,16.21
2018-08-25T14:32:20.592Z,16.26
2018-08-25T14:33:30.560Z,16.37
2018-08-25T14:34:40.281Z,16.41
2018-08-25T14:35:50.271Z,16.49
2018-08-25T14:37:00.241Z,16.54
2018-08-25T14:38:10.205Z,16.59
2018-08-25T14:39:19.917Z,16.51
2018-08-25T14:40:29.640Z,16.58
2018-08-25T14:41:39.759Z,16.72
2018-08-25T14:42:49.942Z,16.69
2018-08-25T14:43:59.908Z,16.82
2018-08-25T14:45:09.900Z,16.69
2018-08-25T14:46:19.872Z,16.76
2018-08-25T14:47:29.771Z,16.8
2018-08-25T14:48:39.787Z,16.72
2018-08-25T14:49:49.757Z,16.84
2018-08-25T14:50:59.756Z,16.82
2018-08-25T14:52:09.752Z,16.91
2018-08-25T14:53:19.718Z,16.95
2018-08-25T14:54:29.715Z,17.01
2018-08-25T14:55:39.688Z,16.97
2018-08-25T14:56:49.658Z,16.97
2018-08-25T14:57:59.366Z,17.09
2018-08-25T14:59:09.379Z,17.17
2018-08-25T15:00:19.549Z,17.1
2018-08-25T15:01:29.689Z,17.1
2018-08-25T15:02:39.713Z,17.16
2018-08-25T15:03:49.455Z,17.19